createdAt,value
2022-12-15T00:00:19.983Z,-3.59
2022-12-15T00:03:05.660Z,-3.59
2022-12-15T00:05:51.386Z,-3.55
2022-12-15T00:08:37.681Z,-3.75
2022-12-15T00:11:23.182Z,-3.67
2022-12-15T00:14:09.313Z,-3.69
2022-12-15T00:16:55.972Z,-3.80
2022-12-15T00:19:42.011Z,-3.89
2022-12-15T00:22:27.604Z,-3.93
2022-12-15T00:25:14.174Z,-4.00
2022-12-15T00:28:00.353Z,-3.62
2022-12-15T00:30:50.055Z,-3.83
2022-12-15T00:33:37.281Z,-3.83
2022-12-15T00:36:29.020Z,-3.84
2022-12-15T00:39:01.895Z,-3.82
2022-12-15T00:41:31.235Z,-3.82
2022-12-15T00:43:58.584Z,-3.77
2022-12-15T00:46:44.494Z,-3.88
2022-12-15T00:49:34.643Z,-3.95
2022-12-15T00:52:21.398Z,-4.11
2022-12-15T00:55:07.533Z,-4.12
2022-12-15T00:57:53.096Z,-4.23
2022-12-15T01:00:39.679Z,-4.06
2022-12-15T01:03:51.184Z,-4.18
2022-12-15T01:06:39.678Z,-4.34
2022-12-15T01:09:28.867Z,-4.33
2022-12-15T01:12:14.955Z,-4.41
2022-12-15T01:15:00.665Z,-4.41
2022-12-15T01:17:46.593Z,-4.57
2022-12-15T01:20:20.214Z,-4.46
2022-12-15T01:22:56.939Z,-4.38
2022-12-15T01:25:26.006Z,-4.37
2022-12-15T01:27:53.539Z,-4.32
2022-12-15T01:30:24.148Z,-4.38
2022-12-15T01:32:52.013Z,-4.27
2022-12-15T01:35:21.516Z,-4.12
2022-12-15T01:37:50.026Z,-4.16
2022-12-15T01:40:38.914Z,-4.17
2022-12-15T01:43:13.656Z,-4.30
2022-12-15T01:46:01.520Z,-4.26
2022-12-15T01:48:49.821Z,-4.26
2022-12-15T01:51:40.025Z,-4.32
2022-12-15T01:54:14.488Z,-4.34
2022-12-15T01:56:46.800Z,-4.31
2022-12-15T01:59:20.910Z,-4.23
2022-12-15T02:01:49.903Z,-4.16
2022-12-15T02:04:22.440Z,-4.17
2022-12-15T02:06:51.037Z,-4.25
2022-12-15T02:09:22.774Z,-4.18
2022-12-15T02:12:03.485Z,-4.19
2022-12-15T02:15:04.417Z,-4.17
2022-12-15T02:18:05.484Z,-4.22
2022-12-15T02:20:46.720Z,-4.30
2022-12-15T02:23:39.764Z,-4.36
2022-12-15T02:26:24.167Z,-4.41
2022-12-15T02:29:08.276Z,-4.39
2022-12-15T02:31:50.988Z,-4.40
2022-12-15T02:34:43.680Z,-4.37
2022-12-15T02:37:17.514Z,-4.17
2022-12-15T02:39:45.437Z,-4.21
2022-12-15T02:42:13.179Z,-4.19
2022-12-15T02:44:44.893Z,-4.33
2022-12-15T02:47:32.223Z,-4.29
2022-12-15T02:50:02.353Z,-4.21
2022-12-15T02:52:40.033Z,-4.14
2022-12-15T02:55:39.391Z,-4.18
2022-12-15T02:58:15.396Z,-4.06
2022-12-15T03:00:50.978Z,-4.16
2022-12-15T03:03:21.357Z,-4.28
2022-12-15T03:05:55.565Z,-4.32
2022-12-15T03:08:22.789Z,-4.39
2022-12-15T03:10:55.113Z,-4.44
2022-12-15T03:13:28.668Z,-4.47
2022-12-15T03:15:56.254Z,-4.56
2022-12-15T03:18:23.857Z,-4.52
2022-12-15T03:20:51.411Z,-4.63
2022-12-15T03:23:18.708Z,-4.62
2022-12-15T03:25:46.588Z,-4.56
2022-12-15T03:28:18.528Z,-4.44
2022-12-15T03:30:46.779Z,-4.41
2022-12-15T03:33:18.922Z,-4.44
2022-12-15T03:35:47.314Z,-4.46
2022-12-15T03:38:14.698Z,-4.44
2022-12-15T03:40:42.318Z,-4.48
2022-12-15T03:43:09.601Z,-4.64
2022-12-15T03:45:38.173Z,-4.60
2022-12-15T03:48:05.793Z,-4.66
2022-12-15T03:50:33.080Z,-4.73
2022-12-15T03:53:04.197Z,-4.44
2022-12-15T03:55:32.011Z,-4.32
2022-12-15T03:57:59.601Z,-4.08
2022-12-15T04:00:28.038Z,-4.12
2022-12-15T04:02:55.369Z,-4.23
2022-12-15T04:05:33.831Z,-4.29
2022-12-15T04:08:02.110Z,-4.44
2022-12-15T04:10:36.628Z,-4.49
2022-12-15T04:13:07.201Z,-4.49
2022-12-15T04:15:36.530Z,-4.53
2022-12-15T04:18:05.995Z,-4.54
2022-12-15T04:20:33.829Z,-4.53
2022-12-15T04:23:02.336Z,-4.31
2022-12-15T04:25:48.914Z,-4.32
2022-12-15T04:28:34.664Z,-4.38
2022-12-15T04:31:30.024Z,-4.17
2022-12-15T04:34:20.942Z,-4.21
2022-12-15T04:37:10.695Z,-4.15
2022-12-15T04:40:02.908Z,-4.05
2022-12-15T04:42:51.199Z,-4.06
2022-12-15T04:45:42.525Z,-4.04
2022-12-15T04:48:29.027Z,-4.04
2022-12-15T04:51:15.120Z,-3.99
2022-12-15T04:54:03.311Z,-3.92
2022-12-15T04:56:51.163Z,-3.94
2022-12-15T04:59:37.386Z,-3.74
2022-12-15T05:02:23.263Z,-3.76
2022-12-15T05:05:08.920Z,-3.68
2022-12-15T05:07:54.894Z,-3.83
2022-12-15T05:10:41.074Z,-3.78
2022-12-15T05:13:27.833Z,-3.95
2022-12-15T05:16:15.939Z,-3.92
2022-12-15T05:19:02.005Z,-3.77
2022-12-15T05:21:47.558Z,-3.86
2022-12-15T05:24:34.245Z,-3.82
2022-12-15T05:27:21.048Z,-3.91
2022-12-15T05:30:07.748Z,-3.96
2022-12-15T05:32:35.068Z,-4.02
2022-12-15T05:35:02.207Z,-3.97
2022-12-15T05:37:31.607Z,-3.85
2022-12-15T05:39:59.065Z,-3.84
2022-12-15T05:42:26.078Z,-3.85
2022-12-15T05:44:58.974Z,-3.75
2022-12-15T05:47:26.754Z,-3.79
2022-12-15T05:49:53.917Z,-3.87
2022-12-15T05:52:21.382Z,-3.77
2022-12-15T05:54:48.769Z,-3.67
2022-12-15T05:57:17.277Z,-3.61
2022-12-15T05:59:45.704Z,-3.67
2022-12-15T06:02:13.241Z,-3.38
2022-12-15T06:04:40.671Z,-3.27
2022-12-15T06:07:07.755Z,-3.29
2022-12-15T06:09:35.019Z,-3.46
2022-12-15T06:12:02.497Z,-3.49
2022-12-15T06:14:31.557Z,-3.58
2022-12-15T06:17:00.265Z,-3.34
2022-12-15T06:19:28.486Z,-3.41
2022-12-15T06:21:55.947Z,-3.49
2022-12-15T06:24:23.454Z,-3.68
2022-12-15T06:26:50.931Z,-3.61
2022-12-15T06:29:18.968Z,-3.78
2022-12-15T06:31:46.794Z,-3.56
2022-12-15T06:34:16.217Z,-3.42
2022-12-15T06:36:44.345Z,-3.38
2022-12-15T06:39:15.727Z,-3.39
2022-12-15T06:41:44.345Z,-3.38
2022-12-15T06:44:16.114Z,-3.60
2022-12-15T06:46:46.056Z,-3.84
2022-12-15T06:49:14.699Z,-3.80
2022-12-15T06:51:44.390Z,-3.55
2022-12-15T06:54:11.977Z,-3.63
2022-12-15T06:56:39.453Z,-3.62
2022-12-15T06:59:07.814Z,-3.83
2022-12-15T07:01:36.469Z,-3.83
2022-12-15T07:04:06.086Z,-3.46
2022-12-15T07:06:39.246Z,-3.50
2022-12-15T07:09:10.763Z,-3.49
2022-12-15T07:11:38.470Z,-3.46
2022-12-15T07:14:12.117Z,-3.57
2022-12-15T07:16:39.604Z,-3.58
2022-12-15T07:19:12.052Z,-3.67
2022-12-15T07:21:39.315Z,-3.78
2022-12-15T07:24:07.066Z,-3.76
2022-12-15T07:26:35.995Z,-3.76
2022-12-15T07:29:03.232Z,-3.83
2022-12-15T07:31:30.910Z,-3.69
2022-12-15T07:34:02.252Z,-3.56
2022-12-15T07:36:29.475Z,-3.32
2022-12-15T07:39:01.743Z,-3.26
2022-12-15T07:41:30.399Z,-3.47
2022-12-15T07:43:58.880Z,-3.26
2022-12-15T07:46:26.950Z,-3.22
2022-12-15T07:48:54.358Z,-3.16
2022-12-15T07:51:23.930Z,-2.77
2022-12-15T07:53:51.426Z,-2.86
2022-12-15T07:56:20.327Z,-3.02
2022-12-15T07:58:47.517Z,-3.14
2022-12-15T08:01:16.488Z,-3.39
2022-12-15T08:03:43.839Z,-3.31
2022-12-15T08:06:13.882Z,-2.88
2022-12-15T08:08:42.007Z,-2.81
2022-12-15T08:11:14.609Z,-2.86
2022-12-15T08:16:32.347Z,-2.82
2022-12-15T08:18:59.899Z,-2.88
2022-12-15T08:21:27.340Z,-2.83
2022-12-15T08:23:54.630Z,-2.69
2022-12-15T08:26:28.223Z,-2.37
2022-12-15T08:29:11.696Z,-2.26
2022-12-15T08:31:46.010Z,-2.16
2022-12-15T08:34:13.381Z,-2.17
2022-12-15T08:36:40.637Z,-2.21
2022-12-15T08:39:09.078Z,-2.10
2022-12-15T08:41:36.167Z,-2.21
2022-12-15T08:44:03.808Z,-2.25
2022-12-15T08:46:36.639Z,-2.19
2022-12-15T08:49:04.733Z,-2.05
2022-12-15T08:51:33.914Z,-2.03
2022-12-15T08:54:02.113Z,-1.98
2022-12-15T08:56:29.768Z,-1.94
2022-12-15T08:59:01.614Z,-1.90
2022-12-15T09:01:32.778Z,-1.84
2022-12-15T09:04:01.664Z,-1.80
2022-12-15T09:06:32.611Z,-1.79
2022-12-15T09:09:03.091Z,-1.68
2022-12-15T09:11:31.242Z,-1.51
2022-12-15T09:13:59.918Z,-1.67
2022-12-15T09:16:28.429Z,-1.68
2022-12-15T09:18:58.823Z,-1.70
2022-12-15T09:21:28.854Z,-1.54
2022-12-15T09:24:00.920Z,-1.29
2022-12-15T09:26:30.361Z,-1.20
2022-12-15T09:28:58.963Z,-1.27
2022-12-15T09:31:31.555Z,-1.22
2022-12-15T09:34:01.047Z,-1.11
2022-12-15T09:36:30.437Z,-1.08
2022-12-15T09:39:02.211Z,-1.19
2022-12-15T09:41:33.060Z,-1.25
2022-12-15T09:44:05.339Z,-1.06
2022-12-15T09:46:57.262Z,-1.05
2022-12-15T09:49:48.706Z,-0.91
2022-12-15T09:52:22.167Z,-0.91
2022-12-15T09:54:49.818Z,-0.88
2022-12-15T09:57:38.188Z,-1.09
2022-12-15T10:00:17.111Z,-1.17
2022-12-15T10:02:46.864Z,-1.07
2022-12-15T10:06:16.062Z,-1.02
2022-12-15T10:08:36.912Z,-0.89
2022-12-15T10:11:26.937Z,-0.89
2022-12-15T10:13:59.163Z,-1.00
2022-12-15T10:16:53.723Z,-0.96
2022-12-15T10:19:27.613Z,-0.89
2022-12-15T10:21:55.046Z,-0.85
2022-12-15T10:24:51.727Z,-0.78
2022-12-15T10:27:30.897Z,-0.65
2022-12-15T10:29:58.476Z,-0.74
2022-12-15T10:32:50.733Z,-0.59
2022-12-15T10:35:31.509Z,-0.45
2022-12-15T10:38:01.566Z,-0.28
2022-12-15T10:40:58.791Z,-0.26
2022-12-15T10:43:37.423Z,-0.06
2022-12-15T10:46:23.348Z,0.01
2022-12-15T10:49:21.709Z,0.10
2022-12-15T10:52:03.400Z,-0.19
2022-12-15T10:54:36.999Z,-0.34
2022-12-15T10:57:23.803Z,-0.27
2022-12-15T11:00:15.600Z,0.00
2022-12-15T11:02:43.503Z,-0.25
2022-12-15T11:05:16.504Z,-0.40
2022-12-15T11:07:55.794Z,-0.58
2022-12-15T11:10:54.070Z,-0.75
2022-12-15T11:13:23.394Z,-0.71
2022-12-15T11:15:56.794Z,-0.34
2022-12-15T11:18:36.080Z,-0.38
2022-12-15T11:21:13.259Z,-0.10
2022-12-15T11:24:32.180Z,0.17
2022-12-15T11:27:11.144Z,0.03
2022-12-15T11:29:55.743Z,0.10
2022-12-15T11:32:29.875Z,-0.15
2022-12-15T11:34:57.372Z,-0.05
2022-12-15T11:37:45.723Z,-0.04
2022-12-15T11:40:38.235Z,0.22
2022-12-15T11:43:18.797Z,0.30
2022-12-15T11:46:20.872Z,0.34
2022-12-15T11:49:12.558Z,0.55
2022-12-15T11:52:06.615Z,0.26
2022-12-15T11:54:55.685Z,0.03
2022-12-15T11:57:28.925Z,0.22
2022-12-15T12:00:04.215Z,0.21
2022-12-15T12:02:40.162Z,0.17
2022-12-15T12:05:30.313Z,0.52
2022-12-15T12:08:06.699Z,0.96
2022-12-15T12:10:46.369Z,1.16
2022-12-15T12:13:25.423Z,1.38
2022-12-15T12:16:10.795Z,2.44
2022-12-15T12:19:04.818Z,3.04
2022-12-15T12:21:55.506Z,3.05
2022-12-15T12:24:33.839Z,3.45
2022-12-15T12:27:34.479Z,3.90
2022-12-15T12:30:23.206Z,4.23
2022-12-15T12:33:30.799Z,4.58
2022-12-15T12:36:10.862Z,4.97
2022-12-15T12:38:50.926Z,5.46
2022-12-15T12:41:36.241Z,5.65
2022-12-15T12:44:15.516Z,5.63
2022-12-15T12:46:50.751Z,5.52
2022-12-15T12:49:32.034Z,5.37
2022-12-15T12:52:03.850Z,5.23
2022-12-15T12:54:37.007Z,5.05
2022-12-15T12:57:13.285Z,4.76
2022-12-15T12:59:49.351Z,4.47
2022-12-15T13:02:22.643Z,4.36
2022-12-15T13:05:00.208Z,4.35
2022-12-15T13:07:36.606Z,4.26
2022-12-15T13:10:19.904Z,4.08
2022-12-15T13:12:55.266Z,3.84
2022-12-15T13:15:31.586Z,3.63
2022-12-15T13:18:18.920Z,3.32
2022-12-15T13:20:48.934Z,3.00
2022-12-15T13:23:19.385Z,2.72
2022-12-15T13:26:08.946Z,2.25
2022-12-15T13:28:45.631Z,2.36
2022-12-15T13:31:19.412Z,2.56
2022-12-15T13:33:50.120Z,2.74
2022-12-15T13:36:42.424Z,2.61
2022-12-15T13:39:15.297Z,2.61
2022-12-15T13:42:32.607Z,2.63
2022-12-15T13:45:03.686Z,2.26
2022-12-15T13:47:31.830Z,2.15
2022-12-15T13:50:09.546Z,1.73
2022-12-15T13:55:46.585Z,1.40
2022-12-15T13:58:22.009Z,1.27
2022-12-15T14:00:57.172Z,1.01
2022-12-15T14:03:25.008Z,0.63
2022-12-15T14:05:58.713Z,0.29
2022-12-15T14:08:30.633Z,0.11
2022-12-15T14:11:07.064Z,-0.22
2022-12-15T14:13:49.127Z,-0.58
2022-12-15T14:16:23.373Z,-0.69
2022-12-15T14:19:17.744Z,-1.02
2022-12-15T14:21:58.936Z,-1.25
2022-12-15T14:24:40.515Z,-1.39
2022-12-15T14:27:31.388Z,-1.63
2022-12-15T14:30:22.858Z,-1.48
2022-12-15T14:33:04.136Z,-1.84
2022-12-15T14:35:40.429Z,-1.98
2022-12-15T14:38:24.729Z,-2.36
2022-12-15T14:40:55.508Z,-2.60
2022-12-15T14:43:32.663Z,-2.79
2022-12-15T14:46:22.637Z,-2.92
2022-12-15T14:49:04.292Z,-3.05
2022-12-15T14:51:46.990Z,-3.16
2022-12-15T14:54:50.170Z,-3.36
2022-12-15T14:57:24.667Z,-3.53
2022-12-15T14:59:53.652Z,-3.66
2022-12-15T15:02:26.998Z,-3.66
2022-12-15T15:05:08.166Z,-3.19
2022-12-15T15:07:39.650Z,-3.22
2022-12-15T15:10:29.547Z,-3.43
2022-12-15T15:12:57.252Z,-3.80
2022-12-15T15:15:26.300Z,-4.15
2022-12-15T15:17:57.531Z,-4.54
2022-12-15T15:20:31.953Z,-4.60
2022-12-15T15:23:11.088Z,-4.49
2022-12-15T15:25:41.679Z,-4.23
2022-12-15T15:28:15.864Z,-4.08
2022-12-15T15:31:00.811Z,-4.24
2022-12-15T15:33:28.120Z,-4.35
2022-12-15T15:36:03.004Z,-4.51
2022-12-15T15:38:38.226Z,-4.52
2022-12-15T15:41:21.323Z,-4.73
2022-12-15T15:43:48.630Z,-4.63
2022-12-15T15:46:21.620Z,-4.64
2022-12-15T15:48:55.911Z,-4.61
2022-12-15T15:51:26.604Z,-4.73
2022-12-15T15:53:58.196Z,-4.66
2022-12-15T15:56:28.718Z,-4.73
2022-12-15T15:59:11.541Z,-4.79
2022-12-15T16:01:39.374Z,-4.76
2022-12-15T16:04:07.136Z,-4.79
2022-12-15T16:06:42.097Z,-4.84
2022-12-15T16:09:15.387Z,-4.72
2022-12-15T16:11:44.060Z,-4.54
2022-12-15T16:14:16.975Z,-4.58
2022-12-15T16:16:46.549Z,-4.60
2022-12-15T16:19:13.863Z,-4.76
2022-12-15T16:21:51.165Z,-4.89
2022-12-15T16:24:19.741Z,-4.84
2022-12-15T16:26:51.166Z,-4.82
2022-12-15T16:29:25.726Z,-5.08
2022-12-15T16:31:53.230Z,-5.16
2022-12-15T16:34:24.948Z,-5.13
2022-12-15T16:36:58.881Z,-5.16
2022-12-15T16:39:35.345Z,-5.41
2022-12-15T16:42:03.127Z,-5.51
2022-12-15T16:44:30.879Z,-5.50
2022-12-15T16:46:59.290Z,-5.77
2022-12-15T16:49:35.063Z,-5.81
2022-12-15T16:52:05.795Z,-5.95
2022-12-15T16:54:33.089Z,-5.97
2022-12-15T16:57:01.670Z,-6.03
2022-12-15T16:59:33.801Z,-6.06
2022-12-15T17:02:13.444Z,-6.03
2022-12-15T17:04:43.334Z,-5.91
2022-12-15T17:07:20.019Z,-6.03
2022-12-15T17:09:50.212Z,-6.11
2022-12-15T17:12:18.607Z,-5.98
2022-12-15T17:14:47.004Z,-5.98
2022-12-15T17:17:19.634Z,-5.91
2022-12-15T17:20:27.361Z,-5.90
2022-12-15T17:22:38.286Z,-6.07
2022-12-15T17:25:06.040Z,-6.17
2022-12-15T17:27:33.799Z,-6.24
2022-12-15T17:30:02.083Z,-6.29
2022-12-15T17:32:29.819Z,-6.21
2022-12-15T17:34:57.701Z,-6.25
2022-12-15T17:37:33.480Z,-6.29
2022-12-15T17:40:03.990Z,-6.29
2022-12-15T17:42:32.082Z,-6.18
2022-12-15T17:45:01.379Z,-6.26
2022-12-15T17:47:31.007Z,-6.26
2022-12-15T17:49:58.265Z,-6.26
2022-12-15T17:52:35.300Z,-6.25
2022-12-15T17:55:05.160Z,-6.26
2022-12-15T17:57:32.660Z,-6.29
2022-12-15T18:00:02.334Z,-6.39
2022-12-15T18:02:30.056Z,-6.35
2022-12-15T18:04:59.978Z,-6.36
2022-12-15T18:07:33.360Z,-6.45
2022-12-15T18:10:02.482Z,-6.40
2022-12-15T18:12:31.029Z,-6.61
2022-12-15T18:14:58.902Z,-6.62
2022-12-15T18:17:27.531Z,-6.49
2022-12-15T18:19:55.133Z,-6.46
2022-12-15T18:22:25.041Z,-6.47
2022-12-15T18:24:57.499Z,-6.47
2022-12-15T18:27:28.504Z,-6.42
2022-12-15T18:29:56.895Z,-6.46
2022-12-15T18:32:27.925Z,-6.49
2022-12-15T18:34:56.228Z,-6.48
2022-12-15T18:37:28.438Z,-6.56
2022-12-15T18:39:58.332Z,-6.54
2022-12-15T18:42:31.960Z,-6.50
2022-12-15T18:45:00.791Z,-6.50
2022-12-15T18:47:28.492Z,-6.52
2022-12-15T18:49:56.710Z,-6.52
2022-12-15T18:52:34.680Z,-6.54
2022-12-15T18:55:03.432Z,-6.57
2022-12-15T18:57:36.448Z,-6.63
2022-12-15T19:00:18.624Z,-6.65
2022-12-15T19:02:46.424Z,-6.69
2022-12-15T19:05:49.207Z,-6.73
2022-12-15T19:08:26.545Z,-6.75
2022-12-15T19:11:05.314Z,-6.76
2022-12-15T19:13:40.324Z,-6.65
2022-12-15T19:16:17.049Z,-6.57
2022-12-15T19:19:03.667Z,-6.50
2022-12-15T19:21:54.860Z,-6.47
2022-12-15T19:24:49.775Z,-6.48
2022-12-15T19:27:21.631Z,-6.30
2022-12-15T19:29:55.576Z,-6.79
2022-12-15T19:32:24.085Z,-6.90
2022-12-15T19:34:52.025Z,-6.83
2022-12-15T19:37:31.603Z,-6.72
2022-12-15T19:40:05.369Z,-6.68
2022-12-15T19:42:37.393Z,-6.66
2022-12-15T19:45:19.796Z,-6.62
2022-12-15T19:47:48.527Z,-6.65
2022-12-15T19:50:21.737Z,-6.63
2022-12-15T19:52:52.494Z,-6.66
2022-12-15T19:55:28.208Z,-6.59
2022-12-15T19:57:57.976Z,-6.57
2022-12-15T20:00:27.648Z,-6.57
2022-12-15T20:02:56.346Z,-6.63
2022-12-15T20:05:34.207Z,-6.75
2022-12-15T20:08:03.202Z,-6.69
2022-12-15T20:10:32.717Z,-6.66
2022-12-15T20:13:03.559Z,-6.62
2022-12-15T20:15:31.364Z,-6.48
2022-12-15T20:17:59.238Z,-6.46
2022-12-15T20:20:29.623Z,-6.47
2022-12-15T20:23:24.143Z,-6.42
2022-12-15T20:25:51.972Z,-6.45
2022-12-15T20:28:30.866Z,-6.39
2022-12-15T20:30:58.772Z,-6.32
2022-12-15T20:33:26.527Z,-6.16
2022-12-15T20:35:55.054Z,-6.23
2022-12-15T20:38:34.609Z,-6.54
2022-12-15T20:41:03.238Z,-6.84
2022-12-15T20:43:35.248Z,-6.90
2022-12-15T20:46:09.347Z,-6.74
2022-12-15T20:48:37.390Z,-6.63
2022-12-15T20:51:09.835Z,-6.57
2022-12-15T20:53:39.365Z,-6.59
2022-12-15T20:56:09.242Z,-6.51
2022-12-15T20:58:39.662Z,-6.58
2022-12-15T21:01:22.860Z,-6.56
2022-12-15T21:03:51.850Z,-6.53
2022-12-15T21:06:20.157Z,-6.51
2022-12-15T21:08:47.957Z,-6.56
2022-12-15T21:11:22.705Z,-6.53
2022-12-15T21:13:53.092Z,-6.63
2022-12-15T21:16:23.444Z,-6.49
2022-12-15T21:21:43.284Z,-6.51
2022-12-15T21:24:23.082Z,-6.42
2022-12-15T21:26:52.627Z,-6.41
2022-12-15T21:29:28.094Z,-6.37
2022-12-15T21:31:55.489Z,-6.30
2022-12-15T21:34:28.587Z,-6.41
2022-12-15T21:36:57.460Z,-6.41
2022-12-15T21:39:30.201Z,-6.36
2022-12-15T21:42:13.044Z,-6.30
2022-12-15T21:44:42.880Z,-6.25
2022-12-15T21:48:01.019Z,-6.20
2022-12-15T21:50:28.488Z,-6.17
2022-12-15T21:52:56.398Z,-6.11
2022-12-15T21:55:27.256Z,-6.13
2022-12-15T21:57:57.758Z,-6.08
2022-12-15T22:00:26.550Z,-6.02
2022-12-15T22:02:54.624Z,-5.90
2022-12-15T22:05:26.065Z,-6.01
2022-12-15T22:07:54.635Z,-6.04
2022-12-15T22:10:24.897Z,-6.04
2022-12-15T22:12:59.056Z,-6.12
2022-12-15T22:15:33.192Z,-6.06
2022-12-15T22:18:00.741Z,-5.87
2022-12-15T22:20:28.280Z,-5.84
2022-12-15T22:22:55.802Z,-5.72
2022-12-15T22:25:26.511Z,-5.69
2022-12-15T22:27:54.948Z,-5.71
2022-12-15T22:30:27.177Z,-5.65
2022-12-15T22:32:55.031Z,-5.57
2022-12-15T22:35:26.875Z,-5.50
2022-12-15T22:38:01.399Z,-5.41
2022-12-15T22:40:29.067Z,-5.31
2022-12-15T22:42:58.524Z,-5.27
2022-12-15T22:45:25.903Z,-5.22
2022-12-15T22:47:55.033Z,-5.16
2022-12-15T22:50:26.217Z,-5.15
2022-12-15T22:52:55.092Z,-5.07
2022-12-15T22:55:24.735Z,-5.01
2022-12-15T22:58:01.789Z,-4.98
2022-12-15T23:00:28.981Z,-4.94
2022-12-15T23:05:30.146Z,-4.79
2022-12-15T23:07:59.349Z,-4.73
2022-12-15T23:10:44.908Z,-4.72
2022-12-15T23:13:13.015Z,-4.68
2022-12-15T23:16:00.004Z,-4.72
2022-12-15T23:18:27.498Z,-4.60
2022-12-15T23:20:54.963Z,-4.52
2022-12-15T23:23:22.260Z,-4.52
2022-12-15T23:25:49.769Z,-4.58
2022-12-15T23:28:17.224Z,-4.55
2022-12-15T23:30:53.274Z,-4.42
2022-12-15T23:33:21.829Z,-4.40
2022-12-15T23:35:49.591Z,-4.45
2022-12-15T23:38:18.227Z,-4.40
2022-12-15T23:40:52.581Z,-4.35
2022-12-15T23:43:22.672Z,-4.26
2022-12-15T23:46:03.327Z,-4.21
2022-12-15T23:48:39.222Z,-4.12
2022-12-15T23:51:09.538Z,-4.16
2022-12-15T23:53:38.145Z,-4.16
2022-12-15T23:56:25.679Z,-4.06
2022-12-15T23:58:59.640Z,-4.03
